Salt Lake City International Airport
KSLC : now visible

Airfield :











YOU CAN JOIN US ON...

 
LOGIN :

Register | Disclaimer

   EN    FR    IT 

 









Legend :    VFR   Marginal VFR   IFR   Intensive IFR   Very Intensive IFR
Visi :
Ceiling :
>= 8 km
>= 3000ft
5 to 8 km
1000 to 3000 ft
1500m to 5 km
500 to 1000 ft
800 to 1500m
200 to 500 ft
< 800m
< 200 ft
Symbols :   Thunderstorms  Fog  Heavy snow  Heavy precipitations  Wind > 20 kt







- Airport Elevation : 4227 ft
- IATA code : SLC


KSLC - Salt Lake City International

CURRENT METAR :
  • 220554Z 12005KT 10SM SCT046 BKN060 BKN110 08/05 A2962 RMK AO2 SLP011 60000 T00780050 10078 20067 50002 VISNO NW RNWY

EXPIRED METARs :
  • 220454Z 12003KT 10SM FEW015 BKN065 BKN110 07/06 A2963 RMK AO2 SLP010 T00720056 VISNO NW RNWY
  • 220354Z 12004KT 10SM FEW020 FEW065 FEW110 SCT150 BKN200 07/05 A2962 RMK AO2 SLP007 T00720050 VISNO NW RNWY

TAF KSLC
Valid from the 22 at 06:00 until the 23 at 12:00 UTC


220529Z 2206/2312 12008KT P6SM VCSH SCT040 BKN060
FM220800 10005KT 6SM -RA SCT030 BKN050
FM221400 10005KT P6SM SCT030 BKN040 OVC100
FM221800 36009KT P6SM SCT040 BKN080
KZLC FIR / North America



MET'MAP, your aeronautical weather chart ! - Copyright ORBIFLY December 2007 - Disclaimer

ORBIFLY MET'MAP TEAM :

Programming & Development : Alexandra Zaïnal
Concept & Development : Baudouin d'Aumeries
Co-Development & Prog : Marc-Olivier Méhu
Technical & hardware support : Manuel Goepfert

Contact : metmap@orbifly.com




SOURCES & CREDITS :

   NOAA       Earth
Advisory